sensor_id;sensor_type;location;lat;lon;timestamp;temperature;humidity
30371;DHT22;17164;48.590;11.410;2023-05-10T00:01:51;14.50;99.90
30371;DHT22;17164;48.590;11.410;2023-05-10T00:04:17;14.50;99.90
30371;DHT22;17164;48.590;11.410;2023-05-10T00:06:43;14.40;99.90
30371;DHT22;17164;48.590;11.410;2023-05-10T00:09:09;14.40;99.90
30371;DHT22;17164;48.590;11.410;2023-05-10T00:11:34;14.40;99.90
30371;DHT22;17164;48.590;11.410;2023-05-10T00:14:00;14.30;99.90
30371;DHT22;17164;48.590;11.410;2023-05-10T00:16:26;14.30;99.90
30371;DHT22;17164;48.590;11.410;2023-05-10T00:18:51;14.30;99.90
30371;DHT22;17164;48.590;11.410;2023-05-10T00:21:17;14.20;99.90
30371;DHT22;17164;48.590;11.410;2023-05-10T00:23:42;14.20;99.90
30371;DHT22;17164;48.590;11.410;2023-05-10T00:26:08;14.20;99.90
30371;DHT22;17164;48.590;11.410;2023-05-10T00:28:33;14.20;99.90
30371;DHT22;17164;48.590;11.410;2023-05-10T00:30:59;14.20;99.90
30371;DHT22;17164;48.590;11.410;2023-05-10T00:33:25;14.20;99.90
30371;DHT22;17164;48.590;11.410;2023-05-10T00:35:51;14.20;99.90
30371;DHT22;17164;48.590;11.410;2023-05-10T00:38:17;14.10;99.90
30371;DHT22;17164;48.590;11.410;2023-05-10T00:40:42;14.10;99.90
30371;DHT22;17164;48.590;11.410;2023-05-10T00:43:08;14.10;99.90
30371;DHT22;17164;48.590;11.410;2023-05-10T00:45:35;14.10;99.90
30371;DHT22;17164;48.590;11.410;2023-05-10T00:48:02;14.10;99.90
30371;DHT22;17164;48.590;11.410;2023-05-10T00:50:28;14.10;99.90
30371;DHT22;17164;48.590;11.410;2023-05-10T00:52:54;14.10;99.90
30371;DHT22;17164;48.590;11.410;2023-05-10T00:55:20;14.00;99.90
30371;DHT22;17164;48.590;11.410;2023-05-10T00:57:47;14.00;99.90
30371;DHT22;17164;48.590;11.410;2023-05-10T01:00:13;14.00;99.90
30371;DHT22;17164;48.590;11.410;2023-05-10T01:02:44;14.00;99.90
30371;DHT22;17164;48.590;11.410;2023-05-10T01:05:09;14.00;99.90
30371;DHT22;17164;48.590;11.410;2023-05-10T01:07:35;14.00;99.90
30371;DHT22;17164;48.590;11.410;2023-05-10T01:10:01;14.00;99.90
30371;DHT22;17164;48.590;11.410;2023-05-10T01:12:26;14.10;99.90
30371;DHT22;17164;48.590;11.410;2023-05-10T01:14:53;14.10;99.90
30371;DHT22;17164;48.590;11.410;2023-05-10T01:17:19;14.10;99.90
30371;DHT22;17164;48.590;11.410;2023-05-10T01:19:46;14.00;99.90
30371;DHT22;17164;48.590;11.410;2023-05-10T01:30:50;14.10;99.90
30371;DHT22;17164;48.590;11.410;2023-05-10T01:33:43;14.10;99.90
30371;DHT22;17164;48.590;11.410;2023-05-10T01:36:30;14.10;99.90
30371;DHT22;17164;48.590;11.410;2023-05-10T01:41:54;14.00;99.90
30371;DHT22;17164;48.590;11.410;2023-05-10T01:47:09;14.10;99.90
30371;DHT22;17164;48.590;11.410;2023-05-10T01:49:49;14.10;99.90
30371;DHT22;17164;48.590;11.410;2023-05-10T01:52:18;14.00;99.90
30371;DHT22;17164;48.590;11.410;2023-05-10T01:54:50;14.10;99.90
30371;DHT22;17164;48.590;11.410;2023-05-10T01:57:18;14.10;99.90
30371;DHT22;17164;48.590;11.410;2023-05-10T01:59:49;14.10;99.90
30371;DHT22;17164;48.590;11.410;2023-05-10T02:02:15;14.10;99.90
30371;DHT22;17164;48.590;11.410;2023-05-10T02:04:42;14.00;99.90
30371;DHT22;17164;48.590;11.410;2023-05-10T02:07:09;14.00;99.90
30371;DHT22;17164;48.590;11.410;2023-05-10T02:09:36;14.00;99.90
30371;DHT22;17164;48.590;11.410;2023-05-10T02:12:04;14.00;99.90
30371;DHT22;17164;48.590;11.410;2023-05-10T02:14:33;14.00;99.90
30371;DHT22;17164;48.590;11.410;2023-05-10T02:17:00;14.00;99.90
30371;DHT22;17164;48.590;11.410;2023-05-10T02:19:28;14.00;99.90
30371;DHT22;17164;48.590;11.410;2023-05-10T02:21:55;14.00;99.90
30371;DHT22;17164;48.590;11.410;2023-05-10T02:24:22;14.00;99.90
30371;DHT22;17164;48.590;11.410;2023-05-10T02:26:51;14.00;99.90
30371;DHT22;17164;48.590;11.410;2023-05-10T02:29:19;13.90;99.90
30371;DHT22;17164;48.590;11.410;2023-05-10T02:31:45;13.90;99.90
30371;DHT22;17164;48.590;11.410;2023-05-10T02:34:11;13.90;99.90
30371;DHT22;17164;48.590;11.410;2023-05-10T02:36:38;13.90;99.90
30371;DHT22;17164;48.590;11.410;2023-05-10T02:39:06;13.90;99.90
30371;DHT22;17164;48.590;11.410;2023-05-10T02:41:35;13.90;99.90
30371;DHT22;17164;48.590;11.410;2023-05-10T02:44:02;13.80;99.90
30371;DHT22;17164;48.590;11.410;2023-05-10T02:46:29;13.80;99.90
30371;DHT22;17164;48.590;11.410;2023-05-10T02:48:55;13.80;99.90
30371;DHT22;17164;48.590;11.410;2023-05-10T02:51:24;13.80;99.90
30371;DHT22;17164;48.590;11.410;2023-05-10T02:53:53;13.80;99.90
30371;DHT22;17164;48.590;11.410;2023-05-10T02:56:40;13.70;99.90
30371;DHT22;17164;48.590;11.410;2023-05-10T02:59:07;13.70;99.90
30371;DHT22;17164;48.590;11.410;2023-05-10T03:01:33;13.70;99.90
30371;DHT22;17164;48.590;11.410;2023-05-10T03:04:00;13.70;99.90
30371;DHT22;17164;48.590;11.410;2023-05-10T03:06:25;13.70;99.90
30371;DHT22;17164;48.590;11.410;2023-05-10T03:08:51;13.60;99.90
30371;DHT22;17164;48.590;11.410;2023-05-10T03:11:32;13.60;99.90
30371;DHT22;17164;48.590;11.410;2023-05-10T03:17:23;13.60;99.90
30371;DHT22;17164;48.590;11.410;2023-05-10T03:19:55;13.60;99.90
30371;DHT22;17164;48.590;11.410;2023-05-10T03:22:34;13.60;99.90
30371;DHT22;17164;48.590;11.410;2023-05-10T03:25:05;13.60;99.90
30371;DHT22;17164;48.590;11.410;2023-05-10T03:27:32;13.60;99.90
30371;DHT22;17164;48.590;11.410;2023-05-10T03:29:58;13.60;99.90
30371;DHT22;17164;48.590;11.410;2023-05-10T03:32:24;13.60;99.90
30371;DHT22;17164;48.590;11.410;2023-05-10T03:34:49;13.60;99.90
30371;DHT22;17164;48.590;11.410;2023-05-10T03:37:15;13.60;99.90
30371;DHT22;17164;48.590;11.410;2023-05-10T03:39:41;13.60;99.90
30371;DHT22;17164;48.590;11.410;2023-05-10T03:42:06;13.60;99.90
30371;DHT22;17164;48.590;11.410;2023-05-10T03:44:32;13.60;99.90
30371;DHT22;17164;48.590;11.410;2023-05-10T03:46:59;13.60;99.90
30371;DHT22;17164;48.590;11.410;2023-05-10T03:49:24;13.60;99.90
30371;DHT22;17164;48.590;11.410;2023-05-10T03:51:50;13.60;99.90
30371;DHT22;17164;48.590;11.410;2023-05-10T03:54:15;13.60;99.90
30371;DHT22;17164;48.590;11.410;2023-05-10T03:56:41;13.60;99.90
30371;DHT22;17164;48.590;11.410;2023-05-10T03:59:07;13.60;99.90
30371;DHT22;17164;48.590;11.410;2023-05-10T04:01:34;13.60;99.90
30371;DHT22;17164;48.590;11.410;2023-05-10T04:04:00;13.60;99.90
30371;DHT22;17164;48.590;11.410;2023-05-10T04:06:26;13.60;99.90
30371;DHT22;17164;48.590;11.410;2023-05-10T04:08:51;13.60;99.90
30371;DHT22;17164;48.590;11.410;2023-05-10T04:11:17;13.60;99.90
30371;DHT22;17164;48.590;11.410;2023-05-10T04:13:42;13.50;99.90
30371;DHT22;17164;48.590;11.410;2023-05-10T04:16:08;13.50;99.90
30371;DHT22;17164;48.590;11.410;2023-05-10T04:18:34;13.50;99.90
30371;DHT22;17164;48.590;11.410;2023-05-10T04:21:00;13.50;99.90
30371;DHT22;17164;48.590;11.410;2023-05-10T04:23:27;13.40;99.90
30371;DHT22;17164;48.590;11.410;2023-05-10T04:25:58;13.40;99.90
30371;DHT22;17164;48.590;11.410;2023-05-10T04:28:24;13.40;99.90
30371;DHT22;17164;48.590;11.410;2023-05-10T04:30:49;13.30;99.90
30371;DHT22;17164;48.590;11.410;2023-05-10T04:33:15;13.30;99.90
30371;DHT22;17164;48.590;11.410;2023-05-10T04:35:41;13.30;99.90
30371;DHT22;17164;48.590;11.410;2023-05-10T04:38:06;13.30;99.90
30371;DHT22;17164;48.590;11.410;2023-05-10T04:40:32;13.20;99.90
30371;DHT22;17164;48.590;11.410;2023-05-10T04:42:58;13.20;99.90
30371;DHT22;17164;48.590;11.410;2023-05-10T04:45:24;13.20;99.90
30371;DHT22;17164;48.590;11.410;2023-05-10T04:47:49;13.20;99.90
30371;DHT22;17164;48.590;11.410;2023-05-10T04:50:15;13.10;99.90
30371;DHT22;17164;48.590;11.410;2023-05-10T04:52:40;13.10;99.90
30371;DHT22;17164;48.590;11.410;2023-05-10T04:55:06;13.10;99.90
30371;DHT22;17164;48.590;11.410;2023-05-10T04:57:34;13.10;99.90
30371;DHT22;17164;48.590;11.410;2023-05-10T05:00:00;13.10;99.90
30371;DHT22;17164;48.590;11.410;2023-05-10T05:02:25;13.10;99.90
30371;DHT22;17164;48.590;11.410;2023-05-10T05:04:51;13.10;99.90
30371;DHT22;17164;48.590;11.410;2023-05-10T05:07:17;13.10;99.90
30371;DHT22;17164;48.590;11.410;2023-05-10T05:09:42;13.20;99.90
30371;DHT22;17164;48.590;11.410;2023-05-10T05:12:08;13.20;99.90
30371;DHT22;17164;48.590;11.410;2023-05-10T05:14:39;13.20;99.90
30371;DHT22;17164;48.590;11.410;2023-05-10T05:17:04;13.20;99.90
30371;DHT22;17164;48.590;11.410;2023-05-10T05:19:31;13.30;99.90
30371;DHT22;17164;48.590;11.410;2023-05-10T05:21:56;13.30;99.90
30371;DHT22;17164;48.590;11.410;2023-05-10T05:24:22;13.30;99.90
30371;DHT22;17164;48.590;11.410;2023-05-10T05:26:48;13.20;99.90
30371;DHT22;17164;48.590;11.410;2023-05-10T05:29:13;13.30;99.90
30371;DHT22;17164;48.590;11.410;2023-05-10T05:31:39;13.20;99.90
30371;DHT22;17164;48.590;11.410;2023-05-10T05:34:05;13.20;99.90
30371;DHT22;17164;48.590;11.410;2023-05-10T05:36:30;13.20;99.90
30371;DHT22;17164;48.590;11.410;2023-05-10T05:38:57;13.30;99.90
30371;DHT22;17164;48.590;11.410;2023-05-10T05:41:22;13.30;99.90
30371;DHT22;17164;48.590;11.410;2023-05-10T05:43:49;13.30;99.90
30371;DHT22;17164;48.590;11.410;2023-05-10T05:46:15;13.30;99.90
30371;DHT22;17164;48.590;11.410;2023-05-10T05:48:41;13.30;99.90
30371;DHT22;17164;48.590;11.410;2023-05-10T05:51:06;13.30;99.90
30371;DHT22;17164;48.590;11.410;2023-05-10T05:53:32;13.20;99.90
30371;DHT22;17164;48.590;11.410;2023-05-10T05:55:58;13.20;99.90
30371;DHT22;17164;48.590;11.410;2023-05-10T05:58:25;13.30;99.90
30371;DHT22;17164;48.590;11.410;2023-05-10T06:00:51;13.30;99.90
30371;DHT22;17164;48.590;11.410;2023-05-10T06:03:19;13.30;99.90
30371;DHT22;17164;48.590;11.410;2023-05-10T06:05:45;13.40;99.90
30371;DHT22;17164;48.590;11.410;2023-05-10T06:08:11;13.40;99.90
30371;DHT22;17164;48.590;11.410;2023-05-10T06:10:37;13.40;99.90
30371;DHT22;17164;48.590;11.410;2023-05-10T06:13:02;13.40;99.90
30371;DHT22;17164;48.590;11.410;2023-05-10T06:15:28;13.40;99.90
30371;DHT22;17164;48.590;11.410;2023-05-10T06:17:54;13.40;99.90
30371;DHT22;17164;48.590;11.410;2023-05-10T06:20:19;13.50;99.90
30371;DHT22;17164;48.590;11.410;2023-05-10T06:22:45;13.50;99.90
30371;DHT22;17164;48.590;11.410;2023-05-10T06:25:10;13.50;99.90
30371;DHT22;17164;48.590;11.410;2023-05-10T06:27:36;13.50;99.90
30371;DHT22;17164;48.590;11.410;2023-05-10T06:30:02;13.50;99.90
30371;DHT22;17164;48.590;11.410;2023-05-10T06:32:28;13.50;99.90
30371;DHT22;17164;48.590;11.410;2023-05-10T06:34:54;13.50;99.90
30371;DHT22;17164;48.590;11.410;2023-05-10T06:37:20;13.50;99.90
30371;DHT22;17164;48.590;11.410;2023-05-10T06:39:46;13.60;99.90
30371;DHT22;17164;48.590;11.410;2023-05-10T06:42:12;13.60;99.90
30371;DHT22;17164;48.590;11.410;2023-05-10T06:44:37;13.60;99.90
30371;DHT22;17164;48.590;11.410;2023-05-10T06:47:03;13.70;99.90
30371;DHT22;17164;48.590;11.410;2023-05-10T06:49:28;13.70;99.90
30371;DHT22;17164;48.590;11.410;2023-05-10T06:51:55;13.80;99.90
30371;DHT22;17164;48.590;11.410;2023-05-10T06:54:21;13.90;99.90
30371;DHT22;17164;48.590;11.410;2023-05-10T06:56:47;14.00;99.90
30371;DHT22;17164;48.590;11.410;2023-05-10T06:59:12;14.10;99.90
30371;DHT22;17164;48.590;11.410;2023-05-10T07:01:39;14.10;99.90
30371;DHT22;17164;48.590;11.410;2023-05-10T07:04:04;14.20;99.90
30371;DHT22;17164;48.590;11.410;2023-05-10T07:06:30;14.20;99.90
30371;DHT22;17164;48.590;11.410;2023-05-10T07:08:56;14.20;99.90
30371;DHT22;17164;48.590;11.410;2023-05-10T07:11:21;14.30;99.90
30371;DHT22;17164;48.590;11.410;2023-05-10T07:13:47;14.40;99.90
30371;DHT22;17164;48.590;11.410;2023-05-10T07:16:12;14.40;99.90
30371;DHT22;17164;48.590;11.410;2023-05-10T07:18:38;14.40;99.90
30371;DHT22;17164;48.590;11.410;2023-05-10T07:21:03;14.40;99.90
30371;DHT22;17164;48.590;11.410;2023-05-10T07:23:29;14.50;99.90
30371;DHT22;17164;48.590;11.410;2023-05-10T07:25:55;14.60;99.90
30371;DHT22;17164;48.590;11.410;2023-05-10T07:28:23;14.70;99.90
30371;DHT22;17164;48.590;11.410;2023-05-10T07:30:49;14.80;99.90
30371;DHT22;17164;48.590;11.410;2023-05-10T07:33:15;14.90;99.90
30371;DHT22;17164;48.590;11.410;2023-05-10T07:35:41;15.00;99.90
30371;DHT22;17164;48.590;11.410;2023-05-10T07:38:07;15.10;99.90
30371;DHT22;17164;48.590;11.410;2023-05-10T07:40:33;15.10;99.90
30371;DHT22;17164;48.590;11.410;2023-05-10T07:42:59;15.20;99.90
30371;DHT22;17164;48.590;11.410;2023-05-10T07:45:27;15.30;99.90
30371;DHT22;17164;48.590;11.410;2023-05-10T07:47:52;15.30;99.90
30371;DHT22;17164;48.590;11.410;2023-05-10T07:50:18;15.30;99.90
30371;DHT22;17164;48.590;11.410;2023-05-10T07:52:43;15.30;99.90
30371;DHT22;17164;48.590;11.410;2023-05-10T07:55:09;15.30;99.90
30371;DHT22;17164;48.590;11.410;2023-05-10T07:57:35;15.20;99.90
30371;DHT22;17164;48.590;11.410;2023-05-10T08:00:02;15.20;99.90
30371;DHT22;17164;48.590;11.410;2023-05-10T08:02:28;15.30;99.90
30371;DHT22;17164;48.590;11.410;2023-05-10T08:04:53;15.40;99.90
30371;DHT22;17164;48.590;11.410;2023-05-10T08:07:19;15.40;99.90
30371;DHT22;17164;48.590;11.410;2023-05-10T08:09:44;15.50;99.90
30371;DHT22;17164;48.590;11.410;2023-05-10T08:12:10;15.70;99.90
30371;DHT22;17164;48.590;11.410;2023-05-10T08:14:36;15.80;99.90
30371;DHT22;17164;48.590;11.410;2023-05-10T08:17:04;15.90;99.90
30371;DHT22;17164;48.590;11.410;2023-05-10T08:19:30;15.90;99.90
30371;DHT22;17164;48.590;11.410;2023-05-10T08:21:56;15.90;99.90
30371;DHT22;17164;48.590;11.410;2023-05-10T08:24:22;15.90;99.90
30371;DHT22;17164;48.590;11.410;2023-05-10T08:26:48;15.90;99.90
30371;DHT22;17164;48.590;11.410;2023-05-10T08:29:14;15.80;99.90
30371;DHT22;17164;48.590;11.410;2023-05-10T08:31:39;15.80;99.90
30371;DHT22;17164;48.590;11.410;2023-05-10T08:34:05;15.80;99.90
30371;DHT22;17164;48.590;11.410;2023-05-10T08:36:31;15.70;99.90
30371;DHT22;17164;48.590;11.410;2023-05-10T08:38:57;15.60;99.90
30371;DHT22;17164;48.590;11.410;2023-05-10T08:41:24;15.50;99.90
30371;DHT22;17164;48.590;11.410;2023-05-10T08:43:52;15.40;99.90
30371;DHT22;17164;48.590;11.410;2023-05-10T08:46:19;15.30;99.90
30371;DHT22;17164;48.590;11.410;2023-05-10T08:48:45;15.20;99.90
30371;DHT22;17164;48.590;11.410;2023-05-10T08:51:14;15.10;99.90
30371;DHT22;17164;48.590;11.410;2023-05-10T08:53:40;15.20;99.90
30371;DHT22;17164;48.590;11.410;2023-05-10T08:56:06;15.30;99.90
30371;DHT22;17164;48.590;11.410;2023-05-10T08:58:32;15.40;99.90
30371;DHT22;17164;48.590;11.410;2023-05-10T09:00:59;15.50;99.90
30371;DHT22;17164;48.590;11.410;2023-05-10T09:03:26;15.70;99.90
30371;DHT22;17164;48.590;11.410;2023-05-10T09:05:51;15.90;99.90
30371;DHT22;17164;48.590;11.410;2023-05-10T09:08:17;16.00;99.90
30371;DHT22;17164;48.590;11.410;2023-05-10T09:10:44;15.90;99.90
30371;DHT22;17164;48.590;11.410;2023-05-10T09:13:14;15.90;99.90
30371;DHT22;17164;48.590;11.410;2023-05-10T09:15:44;15.90;99.90
30371;DHT22;17164;48.590;11.410;2023-05-10T09:18:10;15.90;99.90
30371;DHT22;17164;48.590;11.410;2023-05-10T09:20:35;15.70;99.90
30371;DHT22;17164;48.590;11.410;2023-05-10T09:23:01;15.60;99.90
30371;DHT22;17164;48.590;11.410;2023-05-10T09:25:27;15.40;99.90
30371;DHT22;17164;48.590;11.410;2023-05-10T09:27:52;15.30;99.90
30371;DHT22;17164;48.590;11.410;2023-05-10T09:32:51;15.10;99.90
30371;DHT22;17164;48.590;11.410;2023-05-10T09:35:18;15.10;99.90
30371;DHT22;17164;48.590;11.410;2023-05-10T09:37:50;15.10;99.90
30371;DHT22;17164;48.590;11.410;2023-05-10T09:40:21;15.20;99.90
30371;DHT22;17164;48.590;11.410;2023-05-10T09:45:28;15.40;99.90
30371;DHT22;17164;48.590;11.410;2023-05-10T09:47:54;15.50;99.90
30371;DHT22;17164;48.590;11.410;2023-05-10T09:50:20;15.70;99.90
30371;DHT22;17164;48.590;11.410;2023-05-10T09:53:00;15.80;99.90
30371;DHT22;17164;48.590;11.410;2023-05-10T09:58:04;16.30;99.90
30371;DHT22;17164;48.590;11.410;2023-05-10T10:00:37;16.60;99.90
30371;DHT22;17164;48.590;11.410;2023-05-10T10:03:03;16.90;99.90
30371;DHT22;17164;48.590;11.410;2023-05-10T10:05:34;17.20;99.90
30371;DHT22;17164;48.590;11.410;2023-05-10T10:08:02;17.30;99.90
30371;DHT22;17164;48.590;11.410;2023-05-10T10:10:28;17.30;99.90
30371;DHT22;17164;48.590;11.410;2023-05-10T10:12:54;17.10;99.90
30371;DHT22;17164;48.590;11.410;2023-05-10T10:15:21;16.90;99.90
30371;DHT22;17164;48.590;11.410;2023-05-10T10:17:48;16.80;99.90
30371;DHT22;17164;48.590;11.410;2023-05-10T10:20:15;16.60;99.90
30371;DHT22;17164;48.590;11.410;2023-05-10T10:22:40;16.40;99.90
30371;DHT22;17164;48.590;11.410;2023-05-10T10:25:07;16.30;99.90
30371;DHT22;17164;48.590;11.410;2023-05-10T10:35:20;15.90;99.90
30371;DHT22;17164;48.590;11.410;2023-05-10T10:37:47;15.90;99.90
30371;DHT22;17164;48.590;11.410;2023-05-10T10:40:27;15.80;99.90
30371;DHT22;17164;48.590;11.410;2023-05-10T10:42:53;15.90;99.90
30371;DHT22;17164;48.590;11.410;2023-05-10T10:45:20;15.90;99.90
30371;DHT22;17164;48.590;11.410;2023-05-10T10:47:46;16.00;99.90
30371;DHT22;17164;48.590;11.410;2023-05-10T10:50:12;16.10;99.90
30371;DHT22;17164;48.590;11.410;2023-05-10T10:52:45;16.20;99.90
30371;DHT22;17164;48.590;11.410;2023-05-10T10:55:18;16.40;99.90
30371;DHT22;17164;48.590;11.410;2023-05-10T10:57:52;16.50;99.90
30371;DHT22;17164;48.590;11.410;2023-05-10T11:03:05;16.80;99.90
30371;DHT22;17164;48.590;11.410;2023-05-10T11:05:49;16.80;99.90
30371;DHT22;17164;48.590;11.410;2023-05-10T11:08:28;16.80;99.90
30371;DHT22;17164;48.590;11.410;2023-05-10T11:18:41;17.00;99.90
30371;DHT22;17164;48.590;11.410;2023-05-10T11:21:16;17.20;99.90
30371;DHT22;17164;48.590;11.410;2023-05-10T11:23:53;17.50;99.90
30371;DHT22;17164;48.590;11.410;2023-05-10T11:26:23;17.70;99.90
30371;DHT22;17164;48.590;11.410;2023-05-10T11:28:52;17.80;99.90
30371;DHT22;17164;48.590;11.410;2023-05-10T11:31:19;17.80;99.90
30371;DHT22;17164;48.590;11.410;2023-05-10T11:33:47;17.70;99.90
30371;DHT22;17164;48.590;11.410;2023-05-10T11:36:15;17.70;99.90
30371;DHT22;17164;48.590;11.410;2023-05-10T11:38:41;17.70;99.90
30371;DHT22;17164;48.590;11.410;2023-05-10T11:41:11;17.50;99.90
30371;DHT22;17164;48.590;11.410;2023-05-10T11:43:39;17.30;99.90
30371;DHT22;17164;48.590;11.410;2023-05-10T11:46:10;17.20;99.90
30371;DHT22;17164;48.590;11.410;2023-05-10T11:48:37;17.10;99.90
30371;DHT22;17164;48.590;11.410;2023-05-10T11:51:03;17.00;99.90
30371;DHT22;17164;48.590;11.410;2023-05-10T11:53:31;17.00;99.90
30371;DHT22;17164;48.590;11.410;2023-05-10T11:56:10;17.00;99.90
30371;DHT22;17164;48.590;11.410;2023-05-10T11:58:37;16.90;99.90
30371;DHT22;17164;48.590;11.410;2023-05-10T12:01:04;16.80;99.90
30371;DHT22;17164;48.590;11.410;2023-05-10T12:03:30;16.60;99.90
30371;DHT22;17164;48.590;11.410;2023-05-10T12:05:57;16.50;99.90
30371;DHT22;17164;48.590;11.410;2023-05-10T12:08:25;16.40;99.90
30371;DHT22;17164;48.590;11.410;2023-05-10T12:10:51;16.30;99.90
30371;DHT22;17164;48.590;11.410;2023-05-10T12:13:18;16.30;99.90
30371;DHT22;17164;48.590;11.410;2023-05-10T12:15:44;16.20;99.90
30371;DHT22;17164;48.590;11.410;2023-05-10T12:18:11;16.20;99.90
30371;DHT22;17164;48.590;11.410;2023-05-10T12:20:37;16.30;99.90
30371;DHT22;17164;48.590;11.410;2023-05-10T12:23:03;16.30;99.90
30371;DHT22;17164;48.590;11.410;2023-05-10T12:25:35;16.40;99.90
30371;DHT22;17164;48.590;11.410;2023-05-10T12:28:04;16.60;99.90
30371;DHT22;17164;48.590;11.410;2023-05-10T12:30:32;16.70;99.90
30371;DHT22;17164;48.590;11.410;2023-05-10T12:33:09;16.90;99.90
30371;DHT22;17164;48.590;11.410;2023-05-10T12:35:45;17.10;99.90
30371;DHT22;17164;48.590;11.410;2023-05-10T12:38:46;17.30;99.90
30371;DHT22;17164;48.590;11.410;2023-05-10T12:41:17;17.40;99.90
30371;DHT22;17164;48.590;11.410;2023-05-10T12:43:43;17.50;99.90
30371;DHT22;17164;48.590;11.410;2023-05-10T12:46:14;17.50;99.90
30371;DHT22;17164;48.590;11.410;2023-05-10T12:48:41;17.40;99.90
30371;DHT22;17164;48.590;11.410;2023-05-10T12:51:07;17.40;99.90
30371;DHT22;17164;48.590;11.410;2023-05-10T12:53:41;17.30;99.90
30371;DHT22;17164;48.590;11.410;2023-05-10T12:56:07;17.30;99.90
30371;DHT22;17164;48.590;11.410;2023-05-10T12:58:33;17.20;99.90
30371;DHT22;17164;48.590;11.410;2023-05-10T13:00:59;17.20;99.90
30371;DHT22;17164;48.590;11.410;2023-05-10T13:03:25;17.10;99.90
30371;DHT22;17164;48.590;11.410;2023-05-10T13:05:51;17.00;99.90
30371;DHT22;17164;48.590;11.410;2023-05-10T13:08:16;16.90;99.90
30371;DHT22;17164;48.590;11.410;2023-05-10T13:10:42;16.90;99.90
30371;DHT22;17164;48.590;11.410;2023-05-10T13:13:08;17.00;99.90
30371;DHT22;17164;48.590;11.410;2023-05-10T13:15:34;17.00;99.90
30371;DHT22;17164;48.590;11.410;2023-05-10T13:17:59;17.10;99.90
30371;DHT22;17164;48.590;11.410;2023-05-10T13:20:25;17.20;99.90
30371;DHT22;17164;48.590;11.410;2023-05-10T13:22:51;17.30;99.90
30371;DHT22;17164;48.590;11.410;2023-05-10T13:25:17;17.30;99.90
30371;DHT22;17164;48.590;11.410;2023-05-10T13:27:42;17.50;99.90
30371;DHT22;17164;48.590;11.410;2023-05-10T13:30:08;17.60;99.90
30371;DHT22;17164;48.590;11.410;2023-05-10T13:32:34;17.70;99.90
30371;DHT22;17164;48.590;11.410;2023-05-10T13:35:00;17.70;99.90
30371;DHT22;17164;48.590;11.410;2023-05-10T13:37:25;17.70;99.90
30371;DHT22;17164;48.590;11.410;2023-05-10T13:39:51;17.80;99.90
30371;DHT22;17164;48.590;11.410;2023-05-10T13:42:17;17.80;99.90
30371;DHT22;17164;48.590;11.410;2023-05-10T13:44:43;17.80;99.90
30371;DHT22;17164;48.590;11.410;2023-05-10T13:47:09;17.80;99.90
30371;DHT22;17164;48.590;11.410;2023-05-10T13:49:35;17.80;99.90
30371;DHT22;17164;48.590;11.410;2023-05-10T13:52:01;17.90;99.90
30371;DHT22;17164;48.590;11.410;2023-05-10T13:54:32;18.00;99.90
30371;DHT22;17164;48.590;11.410;2023-05-10T13:56:58;18.10;99.90
30371;DHT22;17164;48.590;11.410;2023-05-10T13:59:24;18.10;99.90
30371;DHT22;17164;48.590;11.410;2023-05-10T14:01:50;18.10;99.90
30371;DHT22;17164;48.590;11.410;2023-05-10T14:04:15;18.20;99.90
30371;DHT22;17164;48.590;11.410;2023-05-10T14:06:41;18.20;99.90
30371;DHT22;17164;48.590;11.410;2023-05-10T14:09:06;18.10;99.90
30371;DHT22;17164;48.590;11.410;2023-05-10T14:11:32;18.10;99.90
30371;DHT22;17164;48.590;11.410;2023-05-10T14:13:58;17.90;99.90
30371;DHT22;17164;48.590;11.410;2023-05-10T14:16:23;17.70;99.90
30371;DHT22;17164;48.590;11.410;2023-05-10T14:18:49;17.40;99.90
30371;DHT22;17164;48.590;11.410;2023-05-10T14:21:14;17.20;99.90
30371;DHT22;17164;48.590;11.410;2023-05-10T14:23:40;16.90;99.90
30371;DHT22;17164;48.590;11.410;2023-05-10T14:26:06;16.50;99.90
30371;DHT22;17164;48.590;11.410;2023-05-10T14:28:32;16.20;99.90
30371;DHT22;17164;48.590;11.410;2023-05-10T14:30:58;15.90;99.90
30371;DHT22;17164;48.590;11.410;2023-05-10T14:33:24;15.60;99.90
30371;DHT22;17164;48.590;11.410;2023-05-10T14:35:50;15.40;99.90
30371;DHT22;17164;48.590;11.410;2023-05-10T14:38:16;15.30;99.90
30371;DHT22;17164;48.590;11.410;2023-05-10T14:40:42;15.20;99.90
30371;DHT22;17164;48.590;11.410;2023-05-10T14:43:08;15.10;99.90
30371;DHT22;17164;48.590;11.410;2023-05-10T14:45:33;15.00;99.90
30371;DHT22;17164;48.590;11.410;2023-05-10T14:48:00;15.00;99.90
30371;DHT22;17164;48.590;11.410;2023-05-10T14:50:26;14.90;99.90
30371;DHT22;17164;48.590;11.410;2023-05-10T14:52:52;14.80;99.90
30371;DHT22;17164;48.590;11.410;2023-05-10T14:55:17;14.80;99.90
30371;DHT22;17164;48.590;11.410;2023-05-10T14:57:43;14.80;99.90
30371;DHT22;17164;48.590;11.410;2023-05-10T15:00:10;14.80;99.90
30371;DHT22;17164;48.590;11.410;2023-05-10T15:02:35;14.80;99.90
30371;DHT22;17164;48.590;11.410;2023-05-10T15:05:02;14.80;99.90
30371;DHT22;17164;48.590;11.410;2023-05-10T15:07:27;14.80;99.90
30371;DHT22;17164;48.590;11.410;2023-05-10T15:09:53;14.80;99.90
30371;DHT22;17164;48.590;11.410;2023-05-10T15:12:19;14.90;99.90
30371;DHT22;17164;48.590;11.410;2023-05-10T15:14:45;14.90;99.90
30371;DHT22;17164;48.590;11.410;2023-05-10T15:17:11;14.90;99.90
30371;DHT22;17164;48.590;11.410;2023-05-10T15:19:36;14.90;99.90
30371;DHT22;17164;48.590;11.410;2023-05-10T15:22:04;14.90;99.90
30371;DHT22;17164;48.590;11.410;2023-05-10T15:24:30;14.90;99.90
30371;DHT22;17164;48.590;11.410;2023-05-10T15:26:56;14.90;99.90
30371;DHT22;17164;48.590;11.410;2023-05-10T15:29:21;14.90;99.90
30371;DHT22;17164;48.590;11.410;2023-05-10T15:31:48;14.90;99.90
30371;DHT22;17164;48.590;11.410;2023-05-10T15:34:14;15.00;99.90
30371;DHT22;17164;48.590;11.410;2023-05-10T15:36:39;15.00;99.90
30371;DHT22;17164;48.590;11.410;2023-05-10T15:39:05;15.00;99.90
30371;DHT22;17164;48.590;11.410;2023-05-10T15:41:31;15.00;99.90
30371;DHT22;17164;48.590;11.410;2023-05-10T15:43:57;15.00;99.90
30371;DHT22;17164;48.590;11.410;2023-05-10T15:46:25;15.00;99.90
30371;DHT22;17164;48.590;11.410;2023-05-10T15:48:51;15.10;99.90
30371;DHT22;17164;48.590;11.410;2023-05-10T15:51:17;15.10;99.90
30371;DHT22;17164;48.590;11.410;2023-05-10T15:53:44;15.10;99.90
30371;DHT22;17164;48.590;11.410;2023-05-10T15:56:09;15.10;99.90
30371;DHT22;17164;48.590;11.410;2023-05-10T15:58:35;15.00;99.90